• Join FlightAware (Why Join?)
  • Login
  • US Flag 
10:16AM EDT


 

Airport Tracker/Info


-or-


 

Live Flight TrackerFlight Track Log ✈ USC105 ✈ 08-Apr-2013 ✈ KBKL - KYIP

Flight Track Log - Related Links

Times and Time Zones

All times are in EDT time to prevent confusion due to time zone crossing. See the USC105 flight status page for this flight to view local times or setup timezone preferences in your user account.

Time Position Orientation Groundspeed Altitude Reporting Facility
EDT Latitude Longitude Course Direction KTS MPH feet Rate Location/Type
11:07PM 41.5353 -81.7094 330° Northwest 126 145 2,300  Level Cleveland Center
11:08PM 41.5689 -81.7100 359° North 114 131 3,300 960 Climbing Cleveland Center
11:09PM 41.6042 -81.7050 North 116 133 4,300 1,080 Climbing Cleveland Center
11:10PM 41.6356 -81.6972 10° North 119 137 5,500 1,020 Climbing Cleveland Center
11:11PM 41.6606 -81.7033 350° North 88 101 6,400 780 Climbing Cleveland Center
11:12PM 41.6686 -81.7394 287° West 100 115 7,100 660 Climbing Cleveland Center
11:13PM 41.6764 -81.7758 286° West 106 122 7,800 480 Climbing Cleveland Center
11:14PM 41.6844 -81.8203 284° West 129 148 8,100 120 Climbing Cleveland Center
11:15PM 41.6942 -81.8706 285° West 142 163 8,100 -60 Level Cleveland Center
11:16PM 41.7061 -81.9208 288° West 141 162 8,000 -60 Descending Cleveland Center
11:17PM 41.7158 -81.9739 284° West 145 167 8,000  Level Cleveland Center
11:18PM 41.7236 -82.0186 283° West 144 166 8,000  Level Cleveland Center
11:19PM 41.7356 -82.0719 287° West 142 163 8,000  Level Cleveland Center
11:20PM 41.7475 -82.1222 288° West 141 162 8,000  Level Cleveland Center
11:21PM 41.7572 -82.1725 285° West 142 163 8,100 -60 Climbing Cleveland Center
11:22PM 41.7650 -82.2089 286° West 144 166 7,900 -120 Descending Cleveland Center
11:23PM 41.7689 -82.2342 282° West 144 166 8,000  Climbing Cleveland Center
11:24PM 41.7764 -82.2872 281° West 146 168 7,900 -120 Descending Cleveland Center
11:25PM 41.7881 -82.3403 286° West 148 170 7,800 -60 Descending Cleveland Center
11:26PM 41.7975 -82.3964 283° West 147 169 7,800  Level Cleveland Center
11:27PM 41.8092 -82.4469 287° West 145 167 7,800  Level Cleveland Center
11:28PM 41.8208 -82.5000 286° West 146 168 7,800  Level Cleveland Center
11:29PM 41.8325 -82.5561 286° West 146 168 7,800  Level Cleveland Center
11:30PM 41.8400 -82.6039 282° West 144 166 7,800  Level Cleveland Center
11:31PM 41.8661 -82.6519 306° West 160 184 7,800  Level Cleveland Center
11:32PM 41.8944 -82.7003 308° West 156 180 7,800  Level Cleveland Center
11:33PM 41.9208 -82.7458 308° West 152 175 7,800  Level Cleveland Center
11:34PM 41.9492 -82.7917 310° West 155 178 7,800  Level Cleveland Center
11:35PM 41.9711 -82.8342 305° West 154 177 7,800  Level Cleveland Center
11:36PM 42.0036 -82.8856 310° West 155 178 7,800  Level Cleveland Center
11:37PM 42.0256 -82.9311 303° West 149 171 7,800 -60 Level Cleveland Center
11:38PM 42.0517 -82.9769 308° West 147 169 7,700 -360 Descending Cleveland Center
11:39PM 42.0758 -83.0197 307° West 160 184 7,200 -480 Descending Cleveland Center
11:40PM 42.1039 -83.0711 306° West 166 191 6,800 -780 Descending Cleveland Center
11:41PM 42.1428 -83.1092 324° Northwest 187 215 5,700 -1,080 Descending Cleveland Center
11:42PM 42.1714 -83.1367 325° Northwest 183 211 5,000 -1,080 Descending FAA TRACON SMA TRACON (SMA)
11:42PM 42.1817 -83.1519 312° West 181 208 4,600 -960 Descending FAA TRACON SMA TRACON (SMA)
11:42PM 42.1906 -83.1681 307° West 171 197 4,400 -780 Descending FAA TRACON SMA TRACON (SMA)
11:43PM 42.2008 -83.1886 304° West 166 191 4,100 -900 Descending FAA TRACON SMA TRACON (SMA)
11:43PM 42.2086 -83.2050 303° West 168 193 3,800 -480 Descending FAA TRACON SMA TRACON (SMA)
11:43PM 42.2161 -83.2206 303° West 163 188 3,800 120 Level FAA TRACON SMA TRACON (SMA)
11:44PM 42.2253 -83.2389 304° West 154 177 3,900 120 Climbing FAA TRACON SMA TRACON (SMA)
11:44PM 42.2331 -83.2506 312° West 140 161 3,900  Level FAA TRACON SMA TRACON (SMA)
11:44PM 42.2428 -83.2647 313° West 137 158 3,900  Level FAA TRACON SMA TRACON (SMA)
11:44PM 42.2503 -83.2756 313° West 134 154 3,900 -180 Level FAA TRACON SMA TRACON (SMA)
11:45PM 42.2561 -83.2917 296° West 137 158 3,800 -600 Descending FAA TRACON SMA TRACON (SMA)
11:45PM 42.2572 -83.3067 276° West 144 166 3,500 -780 Descending FAA TRACON SMA TRACON (SMA)
11:45PM 42.2578 -83.3267 272° West 147 169 3,300 -600 Descending FAA TRACON SMA TRACON (SMA)
11:46PM 42.2589 -83.3461 274° West 150 173 3,100 -600 Descending FAA TRACON SMA TRACON (SMA)
11:46PM 42.2592 -83.3625 271° West 149 171 2,900 -300 Descending FAA TRACON SMA TRACON (SMA)
11:47PM 42.2589 -83.3808 269° West 142 163 2,900  Level FAA TRACON SMA TRACON (SMA)
11:47PM 42.2589 -83.3989 270° West 129 148 2,900 -300 Level FAA TRACON SMA TRACON (SMA)
11:47PM 42.2586 -83.4142 269° West 132 152 2,700 -600 Descending FAA TRACON SMA TRACON (SMA)
11:48PM 42.2589 -83.4292 271° West 138 159 2,500 -1,260 Descending FAA TRACON SMA TRACON (SMA)
11:48PM 42.2606 -83.4519 276° West 145 167 1,900 -1,200 Descending FAA TRACON SMA TRACON (SMA)
11:48PM 42.2639 -83.4692 285° West 151 174 1,700 -300 Descending FAA TRACON SMA TRACON (SMA)
11:49PM 42.2661 -83.4842 281° West 118 136 1,700 -780 Level FAA TRACON SMA TRACON (SMA)
11:49PM 42.2581 -83.5003 236° Southwest 131 151 1,200 -1,200 Descending FAA TRACON SMA TRACON (SMA)
11:49PM 42.2508 -83.5097 224° Southwest 116 133 900 -480 Descending FAA TRACON SMA TRACON (SMA)
11:49PM 42.2494 -83.5128 238° Southwest 108 124 900  Level FAA TRACON SMA TRACON (SMA)